Time;durP1;ratioP1;P1;durP2;ratioP2;P2;SDS_P1;SDS_P2;PMS_P1;PMS_P2;Temp;Humidity;BMP_temperature;BMP_pressure;BME280_temperature;BME280_humidity;BME280_pressure;Samples;Min_cycle;Max_cycle;Signal;HPM_P1;HPM_P2
2022/03/04 00:02:00;;;;;;;18.42;9.55;;;;;;;0.46;100.00;102254.97;5056983;28;20044;-70
2022/03/04 00:04:26;;;;;;;19.95;10.48;;;;;;;0.31;100.00;102247.66;5062421;28;20036;-70
2022/03/04 00:06:53;;;;;;;17.70;8.73;;;;;;;0.39;100.00;102251.72;5059943;28;20017;-70
2022/03/04 00:09:20;;;;;;;15.57;7.20;;;;;;;0.39;100.00;102269.03;5054532;28;20021;-70
2022/03/04 00:11:46;;;;;;;15.02;7.82;;;;;;;0.30;100.00;102248.56;5060480;28;20099;-70
2022/03/04 00:14:11;;;;;;;16.45;8.00;;;;;;;0.35;100.00;102262.25;5064054;28;20405;-70
2022/03/04 00:16:36;;;;;;;15.20;7.97;;;;;;;0.34;100.00;102270.94;5057582;28;20052;-70
2022/03/04 00:19:11;;;;;;;18.38;8.35;;;;;;;0.24;100.00;102254.81;5061680;28;20033;-70
2022/03/04 00:21:42;;;;;;;16.02;7.25;;;;;;;0.28;100.00;102284.09;5059555;28;20096;-70
2022/03/04 00:24:09;;;;;;;19.15;9.82;;;;;;;0.23;100.00;102276.47;5059343;28;20032;-71
2022/03/04 00:26:36;;;;;;;18.60;8.23;;;;;;;0.20;100.00;102272.22;5063213;28;20068;-70
2022/03/04 00:29:02;;;;;;;14.55;8.10;;;;;;;0.17;100.00;102274.94;5060384;28;20377;-70
2022/03/04 00:31:28;;;;;;;21.05;7.25;;;;;;;0.14;100.00;102274.16;5064010;28;20029;-70
2022/03/04 00:33:53;;;;;;;22.42;9.80;;;;;;;0.11;100.00;102277.72;5063325;28;20493;-70
2022/03/04 00:36:22;;;;;;;19.15;9.20;;;;;;;-0.06;100.00;102252.25;5061204;28;20040;-70
2022/03/04 00:38:52;;;;;;;17.73;9.95;;;;;;;-0.01;100.00;102270.28;5062643;28;20480;-70
2022/03/04 00:41:19;;;;;;;18.47;9.20;;;;;;;0.06;100.00;102284.75;5065248;28;20033;-70
2022/03/04 00:43:45;;;;;;;14.90;8.60;;;;;;;0.07;100.00;102285.63;5062381;28;20283;-70
2022/03/04 00:46:11;;;;;;;21.15;9.43;;;;;;;0.06;100.00;102291.72;5060360;28;20040;-70
2022/03/04 00:48:37;;;;;;;18.08;7.82;;;;;;;-0.04;100.00;102265.19;5057732;28;20043;-70
2022/03/04 00:51:03;;;;;;;13.07;7.00;;;;;;;0.09;100.00;102279.50;5057596;28;20113;-70
2022/03/04 00:53:30;;;;;;;16.60;8.02;;;;;;;0.06;100.00;102289.97;5060945;28;20161;-70
2022/03/04 00:55:55;;;;;;;17.35;8.15;;;;;;;0.02;100.00;102288.34;5059851;28;20409;-70
2022/03/04 00:58:21;;;;;;;19.75;8.18;;;;;;;0.02;100.00;102301.31;5061707;28;20031;-70
2022/03/04 01:00:46;;;;;;;15.85;9.00;;;;;;;-0.06;100.00;102280.81;5060574;28;20029;-70
2022/03/04 01:03:12;;;;;;;14.68;6.43;;;;;;;-0.03;100.00;102287.66;5059612;28;20021;-70
2022/03/04 01:05:38;;;;;;;20.40;8.35;;;;;;;-0.15;100.00;102278.50;5058650;28;20033;-70
2022/03/04 01:08:03;;;;;;;18.33;9.35;;;;;;;0.01;100.00;102304.00;5060672;28;20433;-70
2022/03/04 01:10:29;;;;;;;16.15;7.32;;;;;;;-0.06;100.00;102304.16;5058442;28;20035;-70
2022/03/04 01:12:56;;;;;;;14.57;7.45;;;;;;;-0.03;100.00;102303.22;5059944;28;20088;-70
2022/03/04 01:15:21;;;;;;;17.80;9.20;;;;;;;-0.04;100.00;102307.56;5056549;28;20048;-70
2022/03/04 01:17:46;;;;;;;27.73;9.43;;;;;;;-0.05;100.00;102311.03;5060518;28;20033;-70
2022/03/04 01:20:12;;;;;;;15.68;7.68;;;;;;;-0.06;100.00;102318.91;5061016;28;20029;-70
2022/03/04 01:22:37;;;;;;;18.00;8.07;;;;;;;-0.07;100.00;102319.78;5058748;28;20028;-70
2022/03/04 01:25:03;;;;;;;18.20;8.63;;;;;;;-0.10;100.00;102315.53;5057172;28;20032;-70
2022/03/04 01:27:29;;;;;;;23.75;9.38;;;;;;;-0.11;100.00;102313.84;5059958;28;20024;-70
2022/03/04 01:29:54;;;;;;;21.25;8.70;;;;;;;-0.14;100.00;102313.06;5061182;28;20478;-70
2022/03/04 01:32:20;;;;;;;15.38;8.20;;;;;;;-0.17;100.00;102308.84;5059059;28;20120;-70
2022/03/04 01:34:45;;;;;;;16.48;9.07;;;;;;;-0.22;100.00;102306.38;5059838;28;20481;-70
2022/03/04 01:37:11;;;;;;;13.57;7.32;;;;;;;-0.18;100.00;102312.31;5060208;28;20020;-70
2022/03/04 01:39:37;;;;;;;18.00;7.72;;;;;;;-0.24;100.00;102313.34;5061120;28;20035;-70
2022/03/04 01:42:03;;;;;;;19.58;8.35;;;;;;;-0.25;100.00;102314.22;5058288;28;20016;-70
2022/03/04 01:44:28;;;;;;;20.77;8.15;;;;;;;-0.34;100.00;102298.94;5060294;28;20020;-70
2022/03/04 01:46:54;;;;;;;17.33;7.85;;;;;;;-0.24;100.00;102312.47;5058617;28;20078;-70
2022/03/04 01:49:19;;;;;;;16.35;9.57;;;;;;;-0.27;100.00;102310.81;5058204;28;20124;-70
2022/03/04 01:51:45;;;;;;;22.10;10.30;;;;;;;-0.39;100.00;102284.38;5060113;28;20037;-70
2022/03/04 01:54:10;;;;;;;10.90;6.32;;;;;;;-0.30;100.00;102299.72;5058285;28;20033;-70
2022/03/04 01:56:35;;;;;;;18.73;9.02;;;;;;;-0.32;100.00;102302.34;5060776;28;20489;-70
2022/03/04 01:59:01;;;;;;;17.92;7.60;;;;;;;-0.31;100.00;102308.38;5057940;28;20035;-70
2022/03/04 02:01:26;;;;;;;21.58;7.97;;;;;;;-0.33;100.00;102304.97;5060691;28;20055;-70
2022/03/04 02:03:52;;;;;;;15.45;8.68;;;;;;;-0.35;100.00;102307.59;5060054;28;20021;-69
2022/03/04 02:06:17;;;;;;;18.10;9.60;;;;;;;-0.34;100.00;102308.47;5058255;28;20536;-70
2022/03/04 02:08:43;;;;;;;21.58;8.82;;;;;;;-0.36;100.00;102310.25;5058660;28;20461;-70
2022/03/04 02:11:08;;;;;;;14.05;6.28;;;;;;;-0.35;100.00;102309.34;5057126;28;20032;-70
2022/03/04 02:13:35;;;;;;;12.52;6.88;;;;;;;-0.34;100.00;102318.84;5058845;28;20040;-70
2022/03/04 02:16:00;;;;;;;15.63;7.72;;;;;;;-0.38;100.00;102318.06;5060173;28;20559;-70
2022/03/04 02:18:26;;;;;;;15.32;7.90;;;;;;;-0.40;100.00;102308.63;5058243;28;20021;-70
2022/03/04 02:20:53;;;;;;;22.35;8.52;;;;;;;-0.46;100.00;102302.75;5060428;28;20024;-70
2022/03/04 02:23:19;;;;;;;15.50;7.65;;;;;;;-0.58;100.00;102300.47;5057770;28;20462;-71
2022/03/04 02:25:51;;;;;;;15.15;7.50;;;;;;;-0.50;100.00;102305.44;5042518;28;20028;-70
2022/03/04 02:28:19;;;;;;;19.58;8.20;;;;;;;-0.54;100.00;102307.28;5058266;28;20051;-70
2022/03/04 02:30:44;;;;;;;16.73;8.18;;;;;;;-0.54;100.00;102320.25;5059537;28;20028;-69
2022/03/04 02:33:10;;;;;;;17.08;7.78;;;;;;;-0.56;100.00;102316.00;5057401;28;20107;-70
2022/03/04 02:35:38;;;;;;;15.10;7.45;;;;;;;-0.66;100.00;102294.63;5055839;28;20028;-69
2022/03/04 02:38:04;;;;;;;18.35;7.85;;;;;;;-0.59;100.00;102309.13;5058707;28;20034;-69
2022/03/04 02:40:30;;;;;;;19.70;9.23;;;;;;;-0.64;100.00;102298.03;5060097;28;20024;-69
2022/03/04 02:42:56;;;;;;;14.23;8.45;;;;;;;-0.67;100.00;102292.97;5056523;28;20033;-69
2022/03/04 02:45:21;;;;;;;14.98;8.00;;;;;;;-0.72;100.00;102287.03;5057893;28;20056;-70
2022/03/04 02:47:47;;;;;;;24.63;10.70;;;;;;;-0.82;100.00;102277.81;5059054;28;20028;-69
2022/03/04 02:50:12;;;;;;;12.02;6.78;;;;;;;-0.82;100.00;102275.22;5057972;28;20480;-69
2022/03/04 02:52:38;;;;;;;21.92;9.73;;;;;;;-0.82;100.00;102285.59;5058925;28;20012;-69
2022/03/04 02:55:05;;;;;;;16.27;7.40;;;;;;;-0.96;100.00;102250.50;5057146;28;20056;-69
2022/03/04 02:57:30;;;;;;;20.55;9.45;;;;;;;-0.87;100.00;102281.38;5056494;28;20030;-70
2022/03/04 02:59:56;;;;;;;17.02;9.05;;;;;;;-1.08;100.00;102245.66;5056070;28;20471;-70
2022/03/04 03:02:21;;;;;;;20.30;9.10;;;;;;;-0.89;100.00;102285.75;5059904;28;20466;-71
2022/03/04 03:04:46;;;;;;;18.33;8.38;;;;;;;-1.03;100.00;102261.94;5057985;28;20589;-70
2022/03/04 03:07:12;;;;;;;13.70;7.65;;;;;;;-0.90;100.00;102293.56;5052464;28;20028;-70
2022/03/04 03:09:37;;;;;;;12.48;6.47;;;;;;;-1.03;100.00;102267.13;5056412;28;20036;-69
2022/03/04 03:12:03;;;;;;;22.50;8.48;;;;;;;-0.93;100.00;102289.31;5041617;28;20115;-69
2022/03/04 03:14:28;;;;;;;24.20;8.10;;;;;;;-0.92;100.00;102285.81;5057351;28;20036;-69
2022/03/04 03:16:54;;;;;;;21.80;7.82;;;;;;;-0.93;100.00;102284.13;5056956;28;20025;-69
2022/03/04 03:19:19;;;;;;;16.83;6.97;;;;;;;-0.97;100.00;102274.72;5059993;28;20036;-69
2022/03/04 03:21:45;;;;;;;15.35;7.15;;;;;;;-1.06;100.00;102262.03;5057823;28;20070;-69
2022/03/04 03:24:10;;;;;;;19.23;8.73;;;;;;;-0.99;100.00;102268.75;5058127;28;20123;-69
2022/03/04 03:26:36;;;;;;;18.05;8.73;;;;;;;-1.00;100.00;102269.66;5057039;28;20123;-69
2022/03/04 03:29:01;;;;;;;16.88;7.53;;;;;;;-1.01;100.00;102267.94;5054740;28;20040;-69
2022/03/04 03:31:26;;;;;;;21.92;8.45;;;;;;;-1.06;100.00;102267.22;5059564;28;20025;-69
2022/03/04 03:33:52;;;;;;;20.13;9.75;;;;;;;-1.09;100.00;102272.44;5053417;28;20029;-69
2022/03/04 03:36:17;;;;;;;21.58;10.25;;;;;;;-1.10;100.00;102275.94;5058288;28;20024;-68
2022/03/04 03:38:42;;;;;;;14.63;7.97;;;;;;;-1.14;100.00;102274.31;5056350;28;20044;-69
2022/03/04 03:41:08;;;;;;;22.67;9.25;;;;;;;-1.19;100.00;102266.69;5059082;28;20063;-69
2022/03/04 03:43:33;;;;;;;20.15;9.23;;;;;;;-1.22;100.00;102264.16;5058106;28;20028;-68
2022/03/04 03:45:59;;;;;;;15.68;7.90;;;;;;;-1.14;100.00;102287.28;5055580;28;20051;-69
2022/03/04 03:48:24;;;;;;;14.02;7.95;;;;;;;-1.16;100.00;102292.50;5057007;28;20024;-68
2022/03/04 03:50:50;;;;;;;18.55;8.82;;;;;;;-1.17;100.00;102288.22;5056023;28;20033;-68
2022/03/04 03:53:15;;;;;;;16.23;8.05;;;;;;;-1.20;100.00;102293.44;5059026;28;20511;-68
2022/03/04 03:55:41;;;;;;;17.77;8.95;;;;;;;-1.38;100.00;102274.06;5055752;28;20074;-69
2022/03/04 03:58:06;;;;;;;19.45;9.73;;;;;;;-1.33;100.00;102282.56;5053294;28;20443;-69
2022/03/04 04:00:32;;;;;;;23.08;9.63;;;;;;;-1.31;100.00;102293.72;5055083;28;20112;-69
2022/03/04 04:02:57;;;;;;;20.48;8.65;;;;;;;-1.35;100.00;102297.31;5058511;28;20041;-69
2022/03/04 04:05:22;;;;;;;14.25;6.78;;;;;;;-1.49;100.00;102278.66;5059313;28;20424;-68
2022/03/04 04:07:48;;;;;;;21.88;9.63;;;;;;;-1.40;100.00;102303.47;5058022;28;20024;-68
2022/03/04 04:10:13;;;;;;;19.55;9.50;;;;;;;-1.41;100.00;102296.59;5058322;28;20074;-68
2022/03/04 04:12:39;;;;;;;20.13;9.48;;;;;;;-1.47;100.00;102295.00;5054416;28;20409;-68
2022/03/04 04:15:05;;;;;;;23.40;10.50;;;;;;;-1.66;100.00;102269.53;5056203;28;20052;-68
2022/03/04 04:17:30;;;;;;;25.73;9.82;;;;;;;-1.56;100.00;102297.81;5056121;28;20033;-68
2022/03/04 04:19:55;;;;;;;25.15;11.77;;;;;;;-1.84;100.00;102277.75;5055731;28;20056;-68
2022/03/04 04:22:21;;;;;;;16.75;7.78;;;;;;;-1.76;100.00;102298.28;5056328;28;20229;-68
2022/03/04 04:24:46;;;;;;;27.85;11.90;;;;;;;-1.78;100.00;102300.91;5056291;28;20021;-68
2022/03/04 04:27:12;;;;;;;17.17;8.15;;;;;;;-1.79;100.00;102300.91;5063341;28;20029;-68
2022/03/04 04:29:37;;;;;;;23.20;9.15;;;;;;;-1.82;100.00;102307.03;5061774;28;20032;-68
2022/03/04 04:32:03;;;;;;;23.05;9.98;;;;;;;-1.89;100.00;102314.06;5062361;28;20120;-68
2022/03/04 04:34:28;;;;;;;31.15;11.57;;;;;;;-2.00;100.00;102291.88;5058930;28;20416;-70
2022/03/04 04:36:53;;;;;;;24.75;10.05;;;;;;;-1.87;100.00;102316.63;5058237;28;20035;-68
2022/03/04 04:39:19;;;;;;;26.10;11.90;;;;;;;-1.98;100.00;102316.00;5064169;28;20083;-69
2022/03/04 04:41:44;;;;;;;25.88;11.38;;;;;;;-2.07;100.00;102327.41;5061088;28;20029;-70
2022/03/04 04:44:10;;;;;;;23.45;10.68;;;;;;;-2.12;100.00;102324.91;5064346;28;20543;-69
2022/03/04 04:46:35;;;;;;;20.88;9.77;;;;;;;-2.22;100.00;102318.25;5063129;28;20424;-69
2022/03/04 04:49:01;;;;;;;26.67;11.43;;;;;;;-2.22;100.00;102328.59;5056995;28;20025;-70
2022/03/04 04:51:26;;;;;;;30.15;11.40;;;;;;;-2.17;100.00;102326.75;5061588;28;20489;-70
2022/03/04 04:53:53;;;;;;;16.52;7.57;;;;;;;-2.27;100.00;102310.56;5044144;28;20029;-71
2022/03/04 04:56:19;;;;;;;19.02;6.55;;;;;;;-2.14;100.00;102326.66;5057481;28;20040;-69
2022/03/04 04:58:45;;;;;;;32.85;12.02;;;;;;;-2.13;100.00;102322.38;5057605;28;20320;-69
2022/03/04 05:01:11;;;;;;;26.77;10.60;;;;;;;-2.07;100.00;102323.09;5062315;28;20036;-69
2022/03/04 05:03:36;;;;;;;23.88;10.32;;;;;;;-2.02;100.00;102323.00;5055447;28;20032;-69
2022/03/04 05:06:02;;;;;;;27.40;11.80;;;;;;;-2.11;100.00;102321.44;5059021;28;20020;-69
2022/03/04 05:08:29;;;;;;;20.67;11.20;;;;;;;-2.13;100.00;102310.28;5059552;28;20029;-69
2022/03/04 05:10:56;;;;;;;23.23;10.27;;;;;;;-2.15;100.00;102304.28;5054446;28;20021;-70
2022/03/04 05:13:21;;;;;;;20.50;9.25;;;;;;;-2.23;100.00;102311.34;5057243;28;20455;-69
2022/03/04 05:15:47;;;;;;;27.98;11.65;;;;;;;-2.08;100.00;102338.63;5056524;28;20099;-69
2022/03/04 05:18:12;;;;;;;26.88;11.45;;;;;;;-2.06;100.00;102334.28;5063975;28;20071;-69
2022/03/04 05:20:38;;;;;;;20.77;10.43;;;;;;;-2.03;100.00;102338.53;5063299;28;20017;-70
2022/03/04 05:23:04;;;;;;;24.25;10.13;;;;;;;-2.00;100.00;102334.16;5058726;28;20107;-70
2022/03/04 05:25:29;;;;;;;20.88;10.25;;;;;;;-1.96;100.00;102340.09;5061977;28;20436;-70
2022/03/04 05:27:55;;;;;;;24.83;10.48;;;;;;;-2.05;100.00;102311.84;5059031;28;20024;-70
2022/03/04 05:30:20;;;;;;;28.23;12.70;;;;;;;-1.97;100.00;102341.00;5026628;28;20036;-70
2022/03/04 05:32:45;;;;;;;33.63;14.73;;;;;;;-2.08;100.00;102342.06;5060375;28;20453;-70
2022/03/04 05:35:11;;;;;;;26.38;12.07;;;;;;;-2.23;100.00;102329.44;5063519;28;20033;-70
2022/03/04 05:37:36;;;;;;;22.67;9.35;;;;;;;-2.11;100.00;102339.56;5060757;28;20028;-70
2022/03/04 05:40:02;;;;;;;23.75;10.07;;;;;;;-2.10;100.00;102349.00;5042687;28;20488;-70
2022/03/04 05:42:28;;;;;;;21.17;10.55;;;;;;;-2.07;100.00;102348.09;5041231;28;20039;-70
2022/03/04 05:44:53;;;;;;;24.65;10.90;;;;;;;-2.11;100.00;102331.81;5060901;28;20377;-70
2022/03/04 05:47:18;;;;;;;30.85;12.68;;;;;;;-2.02;100.00;102355.78;5056179;28;20028;-71
2022/03/04 05:49:44;;;;;;;31.88;11.60;;;;;;;-2.15;100.00;102334.47;5056469;28;20116;-71
2022/03/04 05:52:09;;;;;;;25.45;12.35;;;;;;;-2.15;100.00;102350.00;5059355;28;20032;-71
2022/03/04 05:54:35;;;;;;;25.65;10.32;;;;;;;-2.12;100.00;102347.34;5057240;28;20021;-72
2022/03/04 05:57:01;;;;;;;25.98;11.60;;;;;;;-2.16;100.00;102343.13;5058844;28;20082;-71
2022/03/04 05:59:26;;;;;;;22.98;9.85;;;;;;;-2.12;100.00;102347.34;5054863;28;20033;-71
2022/03/04 06:01:52;;;;;;;27.42;8.82;;;;;;;-2.13;100.00;102369.78;5061154;28;20020;-71
2022/03/04 06:04:17;;;;;;;28.23;12.27;;;;;;;-2.18;100.00;102358.66;5056960;28;20067;-71
2022/03/04 06:06:43;;;;;;;30.45;9.90;;;;;;;-2.30;100.00;102331.31;5058900;28;20036;-71
2022/03/04 06:09:09;;;;;;;25.95;10.15;;;;;;;-2.16;100.00;102359.47;5067176;28;20029;-71
2022/03/04 06:11:35;;;;;;;23.55;10.30;;;;;;;-2.19;100.00;102358.72;5053229;28;20095;-70
2022/03/04 06:14:00;;;;;;;20.40;9.25;;;;;;;-2.12;100.00;102355.09;5049833;28;20387;-71
2022/03/04 06:16:26;;;;;;;20.67;9.98;;;;;;;-2.10;100.00;102356.78;5055470;28;20063;-72
2022/03/04 06:18:52;;;;;;;18.67;8.88;;;;;;;-2.16;100.00;102331.03;5047091;28;20025;-70
2022/03/04 06:21:18;;;;;;;25.35;8.95;;;;;;;-1.96;100.00;102355.63;5048468;28;20044;-71
2022/03/04 06:23:43;;;;;;;28.05;11.02;;;;;;;-2.13;100.00;102323.22;5055825;28;20033;-71
2022/03/04 06:26:09;;;;;;;20.35;9.93;;;;;;;-1.94;100.00;102359.03;5036384;28;20032;-71
2022/03/04 06:28:34;;;;;;;14.60;8.10;;;;;;;-1.92;100.00;102354.69;5048609;28;20556;-71
2022/03/04 06:31:00;;;;;;;20.15;11.10;;;;;;;-1.86;100.00;102359.72;5050429;28;20484;-71
2022/03/04 06:33:32;;;;;;;18.85;8.45;;;;;;;-1.97;100.00;102347.03;5046951;28;20404;-71
2022/03/04 06:36:15;;;;;;;19.75;8.68;;;;;;;-1.93;100.00;102360.75;5050142;28;20046;-71
2022/03/04 06:38:45;;;;;;;24.58;10.80;;;;;;;-1.83;100.00;102359.66;5047239;28;20124;-71
2022/03/04 06:41:12;;;;;;;16.05;8.18;;;;;;;-1.85;100.00;102369.22;5042236;28;20044;-71
2022/03/04 06:43:38;;;;;;;16.77;8.07;;;;;;;-1.97;100.00;102339.25;5046963;28;20040;-71
2022/03/04 06:46:04;;;;;;;14.52;7.85;;;;;;;-1.88;100.00;102367.53;5048478;28;20043;-71
2022/03/04 06:48:30;;;;;;;22.90;10.93;;;;;;;-1.94;100.00;102353.88;5040964;28;20032;-71
2022/03/04 06:50:56;;;;;;;17.95;8.13;;;;;;;-1.98;100.00;102347.91;5049927;28;20032;-71
2022/03/04 06:53:22;;;;;;;21.35;10.02;;;;;;;-1.85;100.00;102356.28;5046868;28;20036;-72
2022/03/04 06:55:48;;;;;;;14.00;6.75;;;;;;;-2.05;100.00;102343.75;5055664;28;20024;-72
2022/03/04 06:58:14;;;;;;;24.77;10.07;;;;;;;-2.10;100.00;102348.16;5052852;28;20021;-72
2022/03/04 07:00:41;;;;;;;19.05;7.53;;;;;;;-1.90;100.00;102371.03;5051719;28;20028;-73
2022/03/04 07:03:07;;;;;;;20.73;10.05;;;;;;;-1.96;100.00;102381.50;5058929;28;20535;-72
2022/03/04 07:05:32;;;;;;;20.80;9.52;;;;;;;-1.99;100.00;102381.59;5055558;28;20021;-72
2022/03/04 07:07:57;;;;;;;26.10;12.88;;;;;;;-2.01;100.00;102379.00;5050195;28;20614;-72
2022/03/04 07:10:23;;;;;;;22.13;10.05;;;;;;;-1.93;100.00;102376.28;5047583;28;20025;-72
2022/03/04 07:12:50;;;;;;;19.25;9.32;;;;;;;-1.90;100.00;102373.63;5047235;28;20029;-72
2022/03/04 07:15:16;;;;;;;25.15;11.27;;;;;;;-1.93;100.00;102373.69;5047662;28;20164;-72
2022/03/04 07:17:41;;;;;;;26.73;11.27;;;;;;;-1.92;100.00;102373.66;5052589;28;20683;-73
2022/03/04 07:20:08;;;;;;;21.88;9.75;;;;;;;-1.96;100.00;102355.63;5034672;28;20044;-71
2022/03/04 07:22:37;;;;;;;32.05;11.23;;;;;;;-1.81;100.00;102376.00;5048300;28;20027;-71
2022/03/04 07:25:12;;;;;;;22.70;9.45;;;;;;;-1.70;100.00;102376.66;5047923;28;20033;-71
2022/03/04 07:27:39;;;;;;;19.23;9.30;;;;;;;-1.65;100.00;102392.06;5049678;28;20021;-71
2022/03/04 07:30:07;;;;;;;20.90;10.85;;;;;;;-1.76;100.00;102387.13;5050999;28;20024;-71
2022/03/04 07:32:33;;;;;;;23.48;10.45;;;;;;;-1.78;100.00;102385.47;5047223;28;20116;-71
2022/03/04 07:34:59;;;;;;;20.98;10.23;;;;;;;-1.72;100.00;102386.19;5047905;28;20112;-71
2022/03/04 07:37:25;;;;;;;21.45;10.85;;;;;;;-1.76;100.00;102378.53;5049638;28;20151;-71
2022/03/04 07:39:50;;;;;;;20.58;9.93;;;;;;;-1.72;100.00;102382.72;5048284;28;20340;-71
2022/03/04 07:42:15;;;;;;;24.40;10.50;;;;;;;-1.74;100.00;102382.78;5043678;28;20029;-71
2022/03/04 07:44:41;;;;;;;19.52;8.63;;;;;;;-1.65;100.00;102389.50;5048744;28;20512;-73
2022/03/04 07:47:07;;;;;;;22.27;9.77;;;;;;;-1.54;100.00;102390.09;5048260;28;20037;-73
2022/03/04 07:49:32;;;;;;;26.77;12.10;;;;;;;-1.70;100.00;102383.53;5047877;28;20079;-72
2022/03/04 07:51:58;;;;;;;25.77;12.27;;;;;;;-1.69;100.00;102378.34;5029635;28;20362;-71
2022/03/04 07:54:23;;;;;;;26.60;10.85;;;;;;;-1.52;100.00;102390.06;5045599;28;20427;-72
2022/03/04 07:56:48;;;;;;;25.98;11.00;;;;;;;-1.48;100.00;102389.97;5048635;28;20024;-72
2022/03/04 07:59:14;;;;;;;21.42;10.77;;;;;;;-1.46;100.00;102382.13;5050317;28;20040;-72
2022/03/04 08:01:39;;;;;;;23.33;10.48;;;;;;;-1.46;100.00;102366.59;5052108;28;20055;-72
2022/03/04 08:04:05;;;;;;;22.35;10.05;;;;;;;-1.48;100.00;102376.16;5051604;28;20025;-72
2022/03/04 08:06:31;;;;;;;19.25;7.30;;;;;;;-1.40;100.00;102382.00;5051758;28;20111;-72
2022/03/04 08:08:56;;;;;;;27.05;10.02;;;;;;;-1.22;100.00;102395.41;5050551;28;20631;-72
2022/03/04 08:11:22;;;;;;;15.32;7.82;;;;;;;-1.33;100.00;102386.19;5050148;28;20326;-72
2022/03/04 08:13:47;;;;;;;26.73;12.25;;;;;;;-1.44;100.00;102385.56;5048009;28;20719;-72
2022/03/04 08:16:12;;;;;;;33.95;10.25;;;;;;;-1.38;100.00;102380.22;5055161;28;20037;-71
2022/03/04 08:18:38;;;;;;;26.20;10.63;;;;;;;-1.21;100.00;102386.78;5050918;28;20438;-71
2022/03/04 08:21:04;;;;;;;29.42;13.07;;;;;;;-0.88;100.00;102383.34;5053756;28;20447;-71
2022/03/04 08:23:30;;;;;;;27.02;11.48;;;;;;;-0.60;100.00;102390.44;5050519;28;20498;-71
2022/03/04 08:25:57;;;;;;;21.45;11.95;;;;;;;-0.60;100.00;102400.78;5054769;28;20052;-71
2022/03/04 08:28:23;;;;;;;19.25;9.68;;;;;;;-0.62;100.00;102390.47;5054483;28;20401;-71
2022/03/04 08:30:48;;;;;;;22.55;10.50;;;;;;;-0.71;100.00;102384.66;5052714;28;20032;-72
2022/03/04 08:33:14;;;;;;;21.27;10.93;;;;;;;-0.80;100.00;102374.53;5058774;28;20028;-71
2022/03/04 08:35:39;;;;;;;19.08;9.23;;;;;;;-0.74;100.00;102387.31;5066544;28;20071;-71
2022/03/04 08:38:04;;;;;;;21.30;11.70;;;;;;;-0.51;100.00;102410.94;5051279;28;20036;-71
2022/03/04 08:40:30;;;;;;;22.00;11.35;;;;;;;-0.46;100.00;102398.72;5059439;28;20040;-72
2022/03/04 08:42:55;;;;;;;21.60;9.98;;;;;;;-0.23;100.00;102399.81;5049753;28;20515;-72
2022/03/04 08:45:21;;;;;;;22.77;11.35;;;;;;;0.51;100.00;102413.28;5048649;28;20036;-70
2022/03/04 08:47:46;;;;;;;21.33;10.48;;;;;;;0.49;100.00;102409.88;5050072;28;20029;-70
2022/03/04 08:50:13;;;;;;;21.77;10.15;;;;;;;0.14;100.00;102394.44;5061871;28;20440;-70
2022/03/04 08:52:39;;;;;;;24.38;11.73;;;;;;;0.69;100.00;102417.03;5065355;28;20445;-70
2022/03/04 08:55:14;;;;;;;21.55;9.68;;;;;;;0.77;99.40;102415.06;5060070;28;20111;-70
2022/03/04 08:57:41;;;;;;;18.10;10.27;;;;;;;0.74;98.08;102415.16;5062286;28;20036;-69
2022/03/04 09:00:07;;;;;;;20.73;11.68;;;;;;;0.75;98.05;102412.50;5056217;28;20037;-69
2022/03/04 09:02:32;;;;;;;19.90;9.73;;;;;;;1.72;97.53;102418.84;5053345;28;20059;-69
2022/03/04 09:04:58;;;;;;;20.02;10.48;;;;;;;1.76;94.55;102394.41;5050292;28;20588;-71
2022/03/04 09:07:23;;;;;;;17.58;9.35;;;;;;;3.01;92.71;102416.56;5049723;28;20377;-69
2022/03/04 09:09:48;;;;;;;19.05;10.40;;;;;;;2.93;87.42;102414.25;5049810;28;20520;-69
2022/03/04 09:12:17;;;;;;;17.50;9.82;;;;;;;2.92;86.37;102412.56;5047899;28;20499;-69
2022/03/04 09:14:42;;;;;;;18.30;9.88;;;;;;;2.55;85.57;102419.25;5049677;28;20041;-69
2022/03/04 09:17:08;;;;;;;18.13;10.30;;;;;;;2.94;85.74;102408.16;5047877;28;20033;-69
2022/03/04 09:19:34;;;;;;;18.98;10.82;;;;;;;2.93;83.92;102405.59;5052303;28;20021;-70
2022/03/04 09:21:59;;;;;;;17.08;10.38;;;;;;;2.77;84.49;102421.84;5049485;28;20056;-69
2022/03/04 09:24:25;;;;;;;17.73;10.35;;;;;;;3.12;84.95;102388.28;5048274;28;20028;-69
2022/03/04 09:26:50;;;;;;;19.48;10.55;;;;;;;3.78;83.13;102418.53;5036940;28;20021;-69
2022/03/04 09:29:16;;;;;;;17.75;8.95;;;;;;;4.82;79.68;102418.97;5049168;28;20574;-70
2022/03/04 09:31:41;;;;;;;14.50;8.98;;;;;;;4.97;77.00;102408.69;5047941;28;20021;-70
2022/03/04 09:34:07;;;;;;;13.57;8.48;;;;;;;5.85;74.38;102410.31;5049667;28;20564;-70
2022/03/04 09:36:32;;;;;;;15.02;9.32;;;;;;;5.84;73.14;102413.88;5050243;28;20060;-70
2022/03/04 09:38:58;;;;;;;13.57;8.27;;;;;;;5.91;71.99;102408.22;5049035;28;20063;-70
2022/03/04 09:41:25;;;;;;;11.15;8.23;;;;;;;6.49;71.26;102401.63;5050554;28;20475;-71
2022/03/04 09:43:53;;;;;;;11.63;7.88;;;;;;;7.25;68.02;102410.44;5049543;28;20025;-72
2022/03/04 09:46:21;;;;;;;12.55;7.53;;;;;;;7.74;68.33;102408.38;5050610;28;20035;-70
2022/03/04 09:48:48;;;;;;;13.93;7.82;;;;;;;6.69;66.99;102404.91;5049711;28;20017;-70
2022/03/04 09:51:14;;;;;;;12.70;7.63;;;;;;;6.63;66.70;102413.13;5051209;28;20455;-71
2022/03/04 09:53:39;;;;;;;11.60;7.60;;;;;;;6.79;68.68;102414.81;5054606;28;20032;-71
2022/03/04 09:56:05;;;;;;;12.93;7.90;;;;;;;7.86;65.39;102429.59;5051409;28;20114;-70
2022/03/04 09:58:31;;;;;;;11.35;8.07;;;;;;;7.40;66.26;102409.53;5061035;28;20021;-70
2022/03/04 10:00:56;;;;;;;11.52;7.97;;;;;;;8.10;64.19;102388.66;5054893;28;20591;-70
2022/03/04 10:03:30;;;;;;;11.23;7.45;;;;;;;7.33;64.38;102416.94;5052198;28;20099;-70
2022/03/04 10:06:00;;;;;;;12.02;8.35;;;;;;;8.20;64.00;102418.69;5049527;28;20288;-71
2022/03/04 10:08:26;;;;;;;10.82;7.57;;;;;;;8.04;63.07;102403.00;5049044;28;20353;-70
2022/03/04 10:10:54;;;;;;;11.77;7.68;;;;;;;7.80;63.73;102415.88;5052400;28;20393;-70
2022/03/04 10:13:46;;;;;;;13.90;7.25;;;;;;;7.59;63.54;102410.13;5053478;28;20052;-71
2022/03/04 10:16:21;;;;;;;11.63;7.70;;;;;;;7.45;64.01;102418.00;5052325;28;20067;-71
2022/03/04 10:19:04;;;;;;;10.50;7.72;;;;;;;7.59;63.84;102417.19;5051215;28;20057;-71
2022/03/04 10:21:50;;;;;;;12.63;7.82;;;;;;;8.20;62.53;102426.56;5052396;28;20488;-71
2022/03/04 10:24:18;;;;;;;9.63;7.22;;;;;;;7.75;63.72;102417.97;5050240;28;20068;-71
2022/03/04 10:26:44;;;;;;;11.30;6.97;;;;;;;8.11;62.16;102415.78;5049392;28;20090;-71
2022/03/04 10:29:23;;;;;;;10.02;7.00;;;;;;;9.03;61.80;102410.75;5050508;28;20032;-71
2022/03/04 10:32:19;;;;;;;12.23;7.28;;;;;;;9.71;58.57;102416.72;5051747;28;20025;-71
2022/03/04 10:34:52;;;;;;;9.77;7.07;;;;;;;8.74;58.60;102414.47;5052044;28;20109;-70
2022/03/04 10:37:43;;;;;;;11.23;7.80;;;;;;;8.92;58.91;102420.31;5052068;28;20021;-70
2022/03/04 10:40:15;;;;;;;12.02;7.75;;;;;;;9.25;59.42;102412.81;5025041;28;20117;-71
2022/03/04 10:42:45;;;;;;;10.90;7.30;;;;;;;9.02;59.74;102414.34;5057741;28;20028;-71
2022/03/04 10:45:25;;;;;;;11.60;7.70;;;;;;;9.89;58.86;102412.81;5048034;28;20461;-71
2022/03/04 10:47:58;;;;;;;10.30;7.70;;;;;;;10.35;57.11;102414.03;5050970;28;20025;-71
2022/03/04 10:50:33;;;;;;;10.88;7.80;;;;;;;9.15;59.50;102411.72;5049856;28;20278;-71
2022/03/04 10:53:00;;;;;;;11.77;7.10;;;;;;;8.06;60.62;102407.31;5052546;28;20101;-71
2022/03/04 10:55:29;;;;;;;9.50;7.18;;;;;;;8.81;60.41;102411.31;5054003;28;20409;-71
2022/03/04 10:57:55;;;;;;;12.00;7.13;;;;;;;9.29;57.37;102384.47;5055434;28;20140;-71
2022/03/04 11:00:28;;;;;;;11.73;7.50;;;;;;;8.99;60.33;102396.13;5052017;28;20051;-71
2022/03/04 11:02:54;;;;;;;10.55;7.35;;;;;;;8.95;60.45;102381.47;5051986;28;20035;-70
2022/03/04 11:05:20;;;;;;;10.25;7.22;;;;;;;9.16;60.07;102404.66;5034637;28;20247;-71
2022/03/04 11:07:47;;;;;;;12.35;7.43;;;;;;;9.06;62.44;102402.66;5055873;28;20016;-71
2022/03/04 11:10:12;;;;;;;11.68;7.30;;;;;;;9.99;60.12;102394.53;5050494;28;20111;-71